sensor_id;sensor_type;location;lat;lon;timestamp;pressure;altitude;pressure_sealevel;temperature;humidity
71889;BME280;59762;49.998;14.858;2023-04-24T00:00:15;96389.53;;;9.32;100.00
71889;BME280;59762;49.998;14.858;2023-04-24T00:03:02;96392.91;;;9.79;100.00
71889;BME280;59762;49.998;14.858;2023-04-24T00:05:28;96381.75;;;9.76;100.00
71889;BME280;59762;49.998;14.858;2023-04-24T00:07:54;96380.72;;;9.99;100.00
71889;BME280;59762;49.998;14.858;2023-04-24T00:10:21;96380.88;;;10.06;100.00
71889;BME280;59762;49.998;14.858;2023-04-24T00:12:46;96383.91;;;10.17;100.00
71889;BME280;59762;49.998;14.858;2023-04-24T00:15:12;96383.69;;;10.27;100.00
71889;BME280;59762;49.998;14.858;2023-04-24T00:17:38;96379.53;;;10.24;100.00
71889;BME280;59762;49.998;14.858;2023-04-24T00:20:04;96366.19;;;10.24;100.00
71889;BME280;59762;49.998;14.858;2023-04-24T00:22:32;96370.81;;;10.45;100.00
71889;BME280;59762;49.998;14.858;2023-04-24T00:24:58;96372.38;;;10.54;100.00
71889;BME280;59762;49.998;14.858;2023-04-24T00:27:24;96369.53;;;10.55;100.00
71889;BME280;59762;49.998;14.858;2023-04-24T00:29:50;96361.38;;;10.71;100.00
71889;BME280;59762;49.998;14.858;2023-04-24T00:32:15;96362.66;;;10.75;98.90
71889;BME280;59762;49.998;14.858;2023-04-24T00:34:41;96357.19;;;10.83;89.45
71889;BME280;59762;49.998;14.858;2023-04-24T00:37:07;96356.19;;;10.84;88.57
71889;BME280;59762;49.998;14.858;2023-04-24T00:39:33;96354.81;;;10.74;89.30
71889;BME280;59762;49.998;14.858;2023-04-24T00:41:59;96354.53;;;10.83;86.22
71889;BME280;59762;49.998;14.858;2023-04-24T00:44:25;96351.78;;;10.62;87.86
71889;BME280;59762;49.998;14.858;2023-04-24T00:46:51;96353.00;;;10.60;87.68
71889;BME280;59762;49.998;14.858;2023-04-24T00:49:23;96350.03;;;10.69;85.45
71889;BME280;59762;49.998;14.858;2023-04-24T00:51:49;96342.28;;;10.74;84.87
71889;BME280;59762;49.998;14.858;2023-04-24T00:54:17;96336.94;;;10.89;82.59
71889;BME280;59762;49.998;14.858;2023-04-24T00:56:44;96332.00;;;10.86;81.65
71889;BME280;59762;49.998;14.858;2023-04-24T00:59:14;96331.78;;;10.87;80.94
71889;BME280;59762;49.998;14.858;2023-04-24T01:01:41;96337.13;;;10.87;80.96
71889;BME280;59762;49.998;14.858;2023-04-24T01:04:07;96330.03;;;10.80;80.82
71889;BME280;59762;49.998;14.858;2023-04-24T01:06:38;96335.91;;;11.04;78.74
71889;BME280;59762;49.998;14.858;2023-04-24T01:09:05;96338.22;;;10.93;79.19
71889;BME280;59762;49.998;14.858;2023-04-24T01:11:31;96334.19;;;10.82;80.19
71889;BME280;59762;49.998;14.858;2023-04-24T01:13:57;96332.19;;;10.55;82.15
71889;BME280;59762;49.998;14.858;2023-04-24T01:16:23;96332.16;;;10.26;86.73
71889;BME280;59762;49.998;14.858;2023-04-24T01:18:48;96324.97;;;10.12;90.13
71889;BME280;59762;49.998;14.858;2023-04-24T01:21:15;96318.50;;;10.07;91.67
71889;BME280;59762;49.998;14.858;2023-04-24T01:23:45;96315.13;;;9.90;93.63
71889;BME280;59762;49.998;14.858;2023-04-24T01:26:12;96311.25;;;9.78;96.04
71889;BME280;59762;49.998;14.858;2023-04-24T01:28:38;96317.06;;;9.82;95.45
71889;BME280;59762;49.998;14.858;2023-04-24T01:31:04;96327.47;;;9.91;94.13
71889;BME280;59762;49.998;14.858;2023-04-24T01:33:31;96316.78;;;9.91;94.41
71889;BME280;59762;49.998;14.858;2023-04-24T01:35:57;96315.44;;;9.95;93.47
71889;BME280;59762;49.998;14.858;2023-04-24T01:38:23;96317.25;;;9.80;95.64
71889;BME280;59762;49.998;14.858;2023-04-24T01:40:49;96324.69;;;9.85;95.13
71889;BME280;59762;49.998;14.858;2023-04-24T01:43:15;96313.84;;;9.86;95.46
71889;BME280;59762;49.998;14.858;2023-04-24T01:45:41;96317.06;;;9.82;95.72
71889;BME280;59762;49.998;14.858;2023-04-24T01:48:07;96315.09;;;9.76;96.31
71889;BME280;59762;49.998;14.858;2023-04-24T01:50:33;96306.06;;;9.62;99.39
71889;BME280;59762;49.998;14.858;2023-04-24T01:52:59;96306.06;;;9.62;100.00
71889;BME280;59762;49.998;14.858;2023-04-24T01:55:24;96304.09;;;9.56;100.00
71889;BME280;59762;49.998;14.858;2023-04-24T01:57:52;96305.97;;;9.56;100.00
71889;BME280;59762;49.998;14.858;2023-04-24T02:00:19;96300.19;;;9.44;100.00
71889;BME280;59762;49.998;14.858;2023-04-24T02:02:45;96299.44;;;9.36;100.00
71889;BME280;59762;49.998;14.858;2023-04-24T02:05:11;96293.16;;;9.29;100.00
71889;BME280;59762;49.998;14.858;2023-04-24T02:07:37;96291.56;;;9.20;100.00
71889;BME280;59762;49.998;14.858;2023-04-24T02:10:03;96281.91;;;9.19;100.00
71889;BME280;59762;49.998;14.858;2023-04-24T02:12:30;96282.63;;;9.13;100.00
71889;BME280;59762;49.998;14.858;2023-04-24T02:14:55;96277.78;;;9.16;100.00
71889;BME280;59762;49.998;14.858;2023-04-24T02:17:21;96272.28;;;9.18;100.00
71889;BME280;59762;49.998;14.858;2023-04-24T02:19:48;96273.56;;;9.22;100.00
71889;BME280;59762;49.998;14.858;2023-04-24T02:22:14;96262.94;;;9.22;100.00
71889;BME280;59762;49.998;14.858;2023-04-24T02:24:39;96270.66;;;9.31;100.00
71889;BME280;59762;49.998;14.858;2023-04-24T02:27:05;96268.50;;;9.35;100.00
71889;BME280;59762;49.998;14.858;2023-04-24T02:29:31;96265.31;;;9.31;100.00
71889;BME280;59762;49.998;14.858;2023-04-24T02:31:57;96263.84;;;9.29;100.00
71889;BME280;59762;49.998;14.858;2023-04-24T02:34:23;96265.72;;;9.28;100.00
71889;BME280;59762;49.998;14.858;2023-04-24T02:36:49;96268.72;;;9.48;100.00
71889;BME280;59762;49.998;14.858;2023-04-24T02:39:15;96265.38;;;9.46;100.00
71889;BME280;59762;49.998;14.858;2023-04-24T02:41:43;96264.41;;;9.47;100.00
71889;BME280;59762;49.998;14.858;2023-04-24T02:44:08;96271.66;;;9.53;100.00
71889;BME280;59762;49.998;14.858;2023-04-24T02:46:34;96264.75;;;9.44;100.00
71889;BME280;59762;49.998;14.858;2023-04-24T02:49:00;96263.44;;;9.40;100.00
71889;BME280;59762;49.998;14.858;2023-04-24T02:51:26;96264.97;;;9.34;100.00
71889;BME280;59762;49.998;14.858;2023-04-24T02:53:52;96263.63;;;9.38;100.00
71889;BME280;59762;49.998;14.858;2023-04-24T02:56:18;96268.78;;;9.40;100.00
71889;BME280;59762;49.998;14.858;2023-04-24T02:58:43;96276.31;;;9.36;100.00
71889;BME280;59762;49.998;14.858;2023-04-24T03:01:09;96272.97;;;9.34;100.00
71889;BME280;59762;49.998;14.858;2023-04-24T03:03:36;96282.38;;;9.45;100.00
71889;BME280;59762;49.998;14.858;2023-04-24T03:06:02;96285.34;;;9.50;100.00
71889;BME280;59762;49.998;14.858;2023-04-24T03:08:28;96290.31;;;9.75;100.00
71889;BME280;59762;49.998;14.858;2023-04-24T03:10:54;96295.34;;;9.48;100.00
71889;BME280;59762;49.998;14.858;2023-04-24T03:13:19;96293.22;;;9.43;100.00
71889;BME280;59762;49.998;14.858;2023-04-24T03:15:45;96300.28;;;9.36;100.00
71889;BME280;59762;49.998;14.858;2023-04-24T03:18:12;96300.16;;;9.30;100.00
71889;BME280;59762;49.998;14.858;2023-04-24T03:20:37;96301.81;;;9.31;100.00
71889;BME280;59762;49.998;14.858;2023-04-24T03:23:03;96308.28;;;9.36;100.00
71889;BME280;59762;49.998;14.858;2023-04-24T03:25:29;96304.03;;;9.42;100.00
71889;BME280;59762;49.998;14.858;2023-04-24T03:27:55;96297.00;;;9.49;100.00
71889;BME280;59762;49.998;14.858;2023-04-24T03:30:21;96301.16;;;9.51;100.00
71889;BME280;59762;49.998;14.858;2023-04-24T03:32:46;96300.91;;;9.61;100.00
71889;BME280;59762;49.998;14.858;2023-04-24T03:35:12;96299.84;;;9.70;100.00
71889;BME280;59762;49.998;14.858;2023-04-24T03:37:38;96300.38;;;9.65;100.00
71889;BME280;59762;49.998;14.858;2023-04-24T03:40:04;96296.88;;;9.65;100.00
71889;BME280;59762;49.998;14.858;2023-04-24T03:42:31;96291.84;;;9.70;100.00
71889;BME280;59762;49.998;14.858;2023-04-24T03:44:57;96283.38;;;9.66;100.00
71889;BME280;59762;49.998;14.858;2023-04-24T03:47:22;96287.88;;;9.66;100.00
71889;BME280;59762;49.998;14.858;2023-04-24T03:49:48;96287.03;;;9.65;100.00
71889;BME280;59762;49.998;14.858;2023-04-24T03:52:13;96286.75;;;9.60;100.00
71889;BME280;59762;49.998;14.858;2023-04-24T03:54:39;96274.78;;;9.56;100.00
71889;BME280;59762;49.998;14.858;2023-04-24T03:57:05;96275.63;;;9.57;100.00
71889;BME280;59762;49.998;14.858;2023-04-24T03:59:31;96277.84;;;9.53;100.00
71889;BME280;59762;49.998;14.858;2023-04-24T04:01:56;96282.31;;;9.53;100.00
71889;BME280;59762;49.998;14.858;2023-04-24T04:04:22;96277.16;;;9.51;100.00
71889;BME280;59762;49.998;14.858;2023-04-24T04:06:48;96291.69;;;9.49;100.00
71889;BME280;59762;49.998;14.858;2023-04-24T04:09:14;96286.53;;;9.47;100.00
71889;BME280;59762;49.998;14.858;2023-04-24T04:11:40;96286.34;;;9.49;100.00
71889;BME280;59762;49.998;14.858;2023-04-24T04:14:06;96288.28;;;9.55;100.00
71889;BME280;59762;49.998;14.858;2023-04-24T04:16:32;96299.72;;;9.63;100.00
71889;BME280;59762;49.998;14.858;2023-04-24T04:18:57;96302.25;;;9.79;100.00
71889;BME280;59762;49.998;14.858;2023-04-24T04:21:23;96303.28;;;9.93;100.00
71889;BME280;59762;49.998;14.858;2023-04-24T04:23:49;96306.56;;;10.17;100.00
71889;BME280;59762;49.998;14.858;2023-04-24T04:26:15;96305.38;;;10.92;100.00
71889;BME280;59762;49.998;14.858;2023-04-24T04:28:41;96297.13;;;11.65;92.80
71889;BME280;59762;49.998;14.858;2023-04-24T04:31:07;96304.03;;;11.59;88.32
71889;BME280;59762;49.998;14.858;2023-04-24T04:33:33;96312.56;;;11.27;89.57
71889;BME280;59762;49.998;14.858;2023-04-24T04:35:59;96314.56;;;10.90;93.74
71889;BME280;59762;49.998;14.858;2023-04-24T04:38:25;96317.81;;;10.71;97.09
71889;BME280;59762;49.998;14.858;2023-04-24T04:40:55;96315.97;;;10.57;99.88
71889;BME280;59762;49.998;14.858;2023-04-24T04:43:23;96315.44;;;10.47;100.00
71889;BME280;59762;49.998;14.858;2023-04-24T04:45:49;96317.72;;;10.50;100.00
71889;BME280;59762;49.998;14.858;2023-04-24T04:48:17;96326.22;;;10.53;100.00
71889;BME280;59762;49.998;14.858;2023-04-24T04:50:44;96321.69;;;10.54;100.00
71889;BME280;59762;49.998;14.858;2023-04-24T04:53:10;96326.84;;;10.55;100.00
71889;BME280;59762;49.998;14.858;2023-04-24T04:55:36;96329.59;;;10.62;100.00
71889;BME280;59762;49.998;14.858;2023-04-24T04:58:02;96336.22;;;10.66;100.00
71889;BME280;59762;49.998;14.858;2023-04-24T05:00:28;96332.53;;;10.67;100.00
71889;BME280;59762;49.998;14.858;2023-04-24T05:02:59;96338.16;;;10.72;100.00
71889;BME280;59762;49.998;14.858;2023-04-24T05:05:25;96343.97;;;10.75;100.00
71889;BME280;59762;49.998;14.858;2023-04-24T05:07:50;96344.69;;;10.84;100.00
71889;BME280;59762;49.998;14.858;2023-04-24T05:10:16;96341.81;;;11.00;95.35
71889;BME280;59762;49.998;14.858;2023-04-24T05:12:42;96343.28;;;11.02;98.14
71889;BME280;59762;49.998;14.858;2023-04-24T05:15:07;96346.75;;;11.03;96.34
71889;BME280;59762;49.998;14.858;2023-04-24T05:17:33;96352.41;;;11.08;96.42
71889;BME280;59762;49.998;14.858;2023-04-24T05:19:59;96356.72;;;11.09;95.59
71889;BME280;59762;49.998;14.858;2023-04-24T05:22:26;96356.47;;;11.04;98.67
71889;BME280;59762;49.998;14.858;2023-04-24T05:24:51;96350.47;;;11.02;96.76
71889;BME280;59762;49.998;14.858;2023-04-24T05:27:17;96354.50;;;10.98;99.58
71889;BME280;59762;49.998;14.858;2023-04-24T05:29:43;96353.97;;;10.88;100.00
71889;BME280;59762;49.998;14.858;2023-04-24T05:32:09;96355.38;;;10.84;100.00
71889;BME280;59762;49.998;14.858;2023-04-24T05:34:35;96359.22;;;10.96;96.38
71889;BME280;59762;49.998;14.858;2023-04-24T05:37:01;96364.38;;;10.97;94.73
71889;BME280;59762;49.998;14.858;2023-04-24T05:39:26;96364.91;;;11.07;94.01
71889;BME280;59762;49.998;14.858;2023-04-24T05:41:52;96361.03;;;11.10;92.67
71889;BME280;59762;49.998;14.858;2023-04-24T05:44:18;96358.72;;;11.07;92.70
71889;BME280;59762;49.998;14.858;2023-04-24T05:46:44;96365.53;;;11.09;94.00
71889;BME280;59762;49.998;14.858;2023-04-24T05:49:09;96370.59;;;11.19;93.09
71889;BME280;59762;49.998;14.858;2023-04-24T05:51:35;96368.38;;;11.22;91.96
71889;BME280;59762;49.998;14.858;2023-04-24T05:54:01;96362.19;;;11.36;91.59
71889;BME280;59762;49.998;14.858;2023-04-24T05:56:28;96363.41;;;11.34;91.45
71889;BME280;59762;49.998;14.858;2023-04-24T05:58:54;96368.09;;;11.32;92.18
71889;BME280;59762;49.998;14.858;2023-04-24T06:01:21;96371.69;;;11.39;91.82
71889;BME280;59762;49.998;14.858;2023-04-24T06:03:46;96371.78;;;11.31;93.62
71889;BME280;59762;49.998;14.858;2023-04-24T06:06:12;96375.00;;;11.26;92.89
71889;BME280;59762;49.998;14.858;2023-04-24T06:08:38;96369.13;;;11.16;93.18
71889;BME280;59762;49.998;14.858;2023-04-24T06:11:03;96371.53;;;11.26;95.07
71889;BME280;59762;49.998;14.858;2023-04-24T06:13:29;96373.72;;;11.22;94.19
71889;BME280;59762;49.998;14.858;2023-04-24T06:15:55;96376.31;;;11.16;93.38
71889;BME280;59762;49.998;14.858;2023-04-24T06:18:20;96370.41;;;11.20;92.94
71889;BME280;59762;49.998;14.858;2023-04-24T06:20:46;96375.13;;;11.18;94.56
71889;BME280;59762;49.998;14.858;2023-04-24T06:23:12;96381.56;;;11.24;94.20
71889;BME280;59762;49.998;14.858;2023-04-24T06:25:38;96376.38;;;11.22;93.02
71889;BME280;59762;49.998;14.858;2023-04-24T06:28:04;96380.81;;;11.30;93.04
71889;BME280;59762;49.998;14.858;2023-04-24T06:30:30;96376.88;;;11.26;92.72
71889;BME280;59762;49.998;14.858;2023-04-24T06:32:56;96365.94;;;11.42;92.29
71889;BME280;59762;49.998;14.858;2023-04-24T06:35:22;96371.50;;;11.40;91.07
71889;BME280;59762;49.998;14.858;2023-04-24T06:37:47;96373.53;;;11.59;90.71
71889;BME280;59762;49.998;14.858;2023-04-24T06:40:14;96373.47;;;11.67;89.53
71889;BME280;59762;49.998;14.858;2023-04-24T06:42:39;96368.13;;;11.67;90.53
71889;BME280;59762;49.998;14.858;2023-04-24T06:45:05;96370.00;;;11.73;88.98
71889;BME280;59762;49.998;14.858;2023-04-24T06:47:31;96363.16;;;11.85;88.30
71889;BME280;59762;49.998;14.858;2023-04-24T06:49:58;96366.72;;;11.71;87.57
71889;BME280;59762;49.998;14.858;2023-04-24T06:52:24;96356.09;;;11.99;86.69
71889;BME280;59762;49.998;14.858;2023-04-24T06:54:50;96364.59;;;11.88;86.85
71889;BME280;59762;49.998;14.858;2023-04-24T06:57:15;96369.53;;;11.84;86.94
71889;BME280;59762;49.998;14.858;2023-04-24T06:59:42;96368.69;;;11.84;87.22
71889;BME280;59762;49.998;14.858;2023-04-24T07:02:07;96368.91;;;11.68;88.23
71889;BME280;59762;49.998;14.858;2023-04-24T07:04:33;96369.97;;;11.52;89.41
71889;BME280;59762;49.998;14.858;2023-04-24T07:06:59;96375.72;;;11.49;90.19
71889;BME280;59762;49.998;14.858;2023-04-24T07:09:25;96377.38;;;11.36;91.48
71889;BME280;59762;49.998;14.858;2023-04-24T07:11:52;96382.81;;;11.42;91.61
71889;BME280;59762;49.998;14.858;2023-04-24T07:14:18;96384.50;;;11.29;92.05
71889;BME280;59762;49.998;14.858;2023-04-24T07:16:44;96386.78;;;11.32;92.12
71889;BME280;59762;49.998;14.858;2023-04-24T07:19:11;96377.66;;;11.41;92.14
71889;BME280;59762;49.998;14.858;2023-04-24T07:21:36;96385.69;;;11.26;93.94
71889;BME280;59762;49.998;14.858;2023-04-24T07:24:02;96391.63;;;11.22;94.38
71889;BME280;59762;49.998;14.858;2023-04-24T07:26:29;96384.22;;;11.24;94.73
71889;BME280;59762;49.998;14.858;2023-04-24T07:28:55;96394.19;;;11.15;94.84
71889;BME280;59762;49.998;14.858;2023-04-24T07:31:21;96404.22;;;11.13;95.02
71889;BME280;59762;49.998;14.858;2023-04-24T07:33:47;96406.00;;;11.21;96.44
71889;BME280;59762;49.998;14.858;2023-04-24T07:36:14;96410.69;;;11.19;94.87
71889;BME280;59762;49.998;14.858;2023-04-24T07:38:47;96402.31;;;11.07;93.05
71889;BME280;59762;49.998;14.858;2023-04-24T07:41:15;96400.19;;;11.17;93.16
71889;BME280;59762;49.998;14.858;2023-04-24T07:43:41;96405.34;;;11.04;94.85
71889;BME280;59762;49.998;14.858;2023-04-24T07:46:08;96399.72;;;11.14;94.51
71889;BME280;59762;49.998;14.858;2023-04-24T07:48:34;96402.41;;;11.14;94.82
71889;BME280;59762;49.998;14.858;2023-04-24T07:51:00;96403.41;;;11.13;96.29
71889;BME280;59762;49.998;14.858;2023-04-24T07:53:26;96407.38;;;11.17;98.33
71889;BME280;59762;49.998;14.858;2023-04-24T07:55:51;96410.75;;;11.25;97.68
71889;BME280;59762;49.998;14.858;2023-04-24T07:58:17;96416.69;;;11.21;100.00
71889;BME280;59762;49.998;14.858;2023-04-24T08:00:46;96412.38;;;11.05;100.00
71889;BME280;59762;49.998;14.858;2023-04-24T08:03:12;96430.22;;;11.05;100.00
71889;BME280;59762;49.998;14.858;2023-04-24T08:05:38;96426.19;;;10.94;100.00
71889;BME280;59762;49.998;14.858;2023-04-24T08:08:04;96435.66;;;10.97;100.00
71889;BME280;59762;49.998;14.858;2023-04-24T08:10:30;96429.88;;;10.93;100.00
71889;BME280;59762;49.998;14.858;2023-04-24T08:12:55;96430.59;;;11.02;100.00
71889;BME280;59762;49.998;14.858;2023-04-24T08:15:21;96436.41;;;10.91;100.00
71889;BME280;59762;49.998;14.858;2023-04-24T08:17:47;96433.75;;;10.91;100.00
71889;BME280;59762;49.998;14.858;2023-04-24T08:20:13;96439.00;;;10.99;100.00
71889;BME280;59762;49.998;14.858;2023-04-24T08:22:40;96431.97;;;10.83;100.00
71889;BME280;59762;49.998;14.858;2023-04-24T08:25:06;96435.22;;;10.93;100.00
71889;BME280;59762;49.998;14.858;2023-04-24T08:27:32;96440.56;;;10.93;100.00
71889;BME280;59762;49.998;14.858;2023-04-24T08:29:58;96441.72;;;10.76;100.00
71889;BME280;59762;49.998;14.858;2023-04-24T08:32:26;96440.63;;;10.85;100.00
71889;BME280;59762;49.998;14.858;2023-04-24T08:34:59;96439.72;;;10.93;100.00
71889;BME280;59762;49.998;14.858;2023-04-24T08:37:26;96445.22;;;10.77;100.00
71889;BME280;59762;49.998;14.858;2023-04-24T08:39:52;96438.59;;;10.73;100.00
71889;BME280;59762;49.998;14.858;2023-04-24T08:42:19;96442.53;;;10.77;100.00
71889;BME280;59762;49.998;14.858;2023-04-24T08:44:46;96446.59;;;10.87;100.00
71889;BME280;59762;49.998;14.858;2023-04-24T08:47:14;96447.25;;;10.75;100.00
71889;BME280;59762;49.998;14.858;2023-04-24T08:49:40;96449.91;;;10.75;100.00
71889;BME280;59762;49.998;14.858;2023-04-24T08:52:06;96454.53;;;10.81;100.00
71889;BME280;59762;49.998;14.858;2023-04-24T08:54:35;96448.97;;;10.68;100.00
71889;BME280;59762;49.998;14.858;2023-04-24T08:57:02;96457.66;;;10.70;100.00
71889;BME280;59762;49.998;14.858;2023-04-24T08:59:31;96462.53;;;10.66;100.00
71889;BME280;59762;49.998;14.858;2023-04-24T09:01:57;96458.19;;;10.65;100.00
71889;BME280;59762;49.998;14.858;2023-04-24T09:04:24;96459.00;;;10.51;100.00
71889;BME280;59762;49.998;14.858;2023-04-24T09:06:57;96451.91;;;10.44;100.00
71889;BME280;59762;49.998;14.858;2023-04-24T09:09:26;96449.69;;;10.47;100.00
71889;BME280;59762;49.998;14.858;2023-04-24T09:11:56;96457.06;;;10.45;100.00
71889;BME280;59762;49.998;14.858;2023-04-24T09:14:22;96449.25;;;10.58;100.00
71889;BME280;59762;49.998;14.858;2023-04-24T09:16:50;96448.44;;;10.72;100.00
71889;BME280;59762;49.998;14.858;2023-04-24T09:19:16;96442.81;;;10.67;100.00
71889;BME280;59762;49.998;14.858;2023-04-24T09:21:45;96445.88;;;10.79;100.00
71889;BME280;59762;49.998;14.858;2023-04-24T09:24:15;96438.59;;;10.87;100.00
71889;BME280;59762;49.998;14.858;2023-04-24T09:26:43;96434.28;;;11.01;100.00
71889;BME280;59762;49.998;14.858;2023-04-24T09:29:15;96438.69;;;11.08;100.00
71889;BME280;59762;49.998;14.858;2023-04-24T09:31:41;96434.47;;;10.99;100.00
71889;BME280;59762;49.998;14.858;2023-04-24T09:34:07;96432.91;;;11.19;100.00
71889;BME280;59762;49.998;14.858;2023-04-24T09:36:35;96435.66;;;11.26;100.00
71889;BME280;59762;49.998;14.858;2023-04-24T09:39:05;96431.88;;;11.20;100.00
71889;BME280;59762;49.998;14.858;2023-04-24T09:41:33;96436.47;;;11.26;100.00
71889;BME280;59762;49.998;14.858;2023-04-24T09:44:16;96433.88;;;11.33;100.00
71889;BME280;59762;49.998;14.858;2023-04-24T09:46:44;96430.84;;;11.36;100.00
71889;BME280;59762;49.998;14.858;2023-04-24T09:49:12;96439.53;;;11.38;100.00
71889;BME280;59762;49.998;14.858;2023-04-24T09:51:39;96438.56;;;11.45;100.00
71889;BME280;59762;49.998;14.858;2023-04-24T09:54:18;96440.50;;;11.51;100.00
71889;BME280;59762;49.998;14.858;2023-04-24T09:56:48;96439.41;;;11.60;100.00
71889;BME280;59762;49.998;14.858;2023-04-24T09:59:18;96435.63;;;11.90;93.62
71889;BME280;59762;49.998;14.858;2023-04-24T10:01:45;96432.66;;;12.21;91.53
71889;BME280;59762;49.998;14.858;2023-04-24T10:04:24;96435.97;;;12.50;88.59
71889;BME280;59762;49.998;14.858;2023-04-24T10:06:53;96435.34;;;12.76;89.62
71889;BME280;59762;49.998;14.858;2023-04-24T10:09:20;96432.56;;;12.90;88.91
71889;BME280;59762;49.998;14.858;2023-04-24T10:11:48;96423.13;;;12.94;85.12
71889;BME280;59762;49.998;14.858;2023-04-24T10:14:15;96428.63;;;13.14;82.81
71889;BME280;59762;49.998;14.858;2023-04-24T10:16:43;96429.34;;;13.29;83.25
71889;BME280;59762;49.998;14.858;2023-04-24T10:19:09;96422.00;;;13.50;85.08
71889;BME280;59762;49.998;14.858;2023-04-24T10:21:36;96425.78;;;13.22;85.04
71889;BME280;59762;49.998;14.858;2023-04-24T10:24:08;96424.47;;;13.45;81.06
71889;BME280;59762;49.998;14.858;2023-04-24T10:26:35;96419.03;;;13.32;79.46
71889;BME280;59762;49.998;14.858;2023-04-24T10:29:01;96430.28;;;13.55;82.01
71889;BME280;59762;49.998;14.858;2023-04-24T10:31:29;96424.59;;;13.84;81.16
71889;BME280;59762;49.998;14.858;2023-04-24T10:33:56;96424.38;;;13.79;78.86
71889;BME280;59762;49.998;14.858;2023-04-24T10:36:24;96417.13;;;13.26;78.19
71889;BME280;59762;49.998;14.858;2023-04-24T10:38:52;96418.22;;;13.92;75.14
71889;BME280;59762;49.998;14.858;2023-04-24T10:41:20;96424.97;;;13.68;75.53
71889;BME280;59762;49.998;14.858;2023-04-24T10:44:03;96418.41;;;13.90;79.70
71889;BME280;59762;49.998;14.858;2023-04-24T10:46:29;96423.88;;;14.29;74.98
71889;BME280;59762;49.998;14.858;2023-04-24T10:48:56;96421.78;;;14.12;73.01
71889;BME280;59762;49.998;14.858;2023-04-24T10:51:23;96423.09;;;14.35;75.03
71889;BME280;59762;49.998;14.858;2023-04-24T10:53:51;96405.72;;;14.38;72.36
71889;BME280;59762;49.998;14.858;2023-04-24T10:56:17;96414.00;;;14.36;73.91
71889;BME280;59762;49.998;14.858;2023-04-24T10:58:51;96414.78;;;14.24;74.30
71889;BME280;59762;49.998;14.858;2023-04-24T11:01:29;96416.03;;;14.73;72.36
71889;BME280;59762;49.998;14.858;2023-04-24T11:04:00;96406.66;;;14.04;74.51
71889;BME280;59762;49.998;14.858;2023-04-24T11:06:40;96411.72;;;14.46;72.92
71889;BME280;59762;49.998;14.858;2023-04-24T11:09:07;96407.78;;;14.55;73.28
71889;BME280;59762;49.998;14.858;2023-04-24T11:11:35;96400.75;;;14.28;75.60
71889;BME280;59762;49.998;14.858;2023-04-24T11:14:03;96392.31;;;14.31;75.68
71889;BME280;59762;49.998;14.858;2023-04-24T11:16:51;96399.69;;;14.88;74.67
71889;BME280;59762;49.998;14.858;2023-04-24T11:19:23;96396.00;;;14.43;69.78
71889;BME280;59762;49.998;14.858;2023-04-24T11:22:00;96394.19;;;15.47;70.00
71889;BME280;59762;49.998;14.858;2023-04-24T11:24:30;96393.72;;;14.93;73.54
71889;BME280;59762;49.998;14.858;2023-04-24T11:27:18;96384.38;;;15.08;69.53
71889;BME280;59762;49.998;14.858;2023-04-24T11:30:00;96382.56;;;14.37;72.43
71889;BME280;59762;49.998;14.858;2023-04-24T11:32:37;96384.22;;;14.83;71.42
71889;BME280;59762;49.998;14.858;2023-04-24T11:37:40;96377.38;;;14.88;67.47
71889;BME280;59762;49.998;14.858;2023-04-24T11:40:11;96380.81;;;15.14;67.98
71889;BME280;59762;49.998;14.858;2023-04-24T11:42:39;96377.47;;;15.32;70.00
71889;BME280;59762;49.998;14.858;2023-04-24T11:45:14;96372.09;;;15.82;69.06
71889;BME280;59762;49.998;14.858;2023-04-24T11:47:42;96368.75;;;16.18;61.94
71889;BME280;59762;49.998;14.858;2023-04-24T11:50:10;96361.31;;;15.82;64.15
71889;BME280;59762;49.998;14.858;2023-04-24T11:52:37;96370.78;;;15.54;67.95
71889;BME280;59762;49.998;14.858;2023-04-24T11:55:05;96363.34;;;15.87;66.53
71889;BME280;59762;49.998;14.858;2023-04-24T11:57:34;96366.28;;;15.85;67.92
71889;BME280;59762;49.998;14.858;2023-04-24T12:00:04;96364.13;;;15.63;64.36
71889;BME280;59762;49.998;14.858;2023-04-24T12:02:33;96371.28;;;15.75;62.23
71889;BME280;59762;49.998;14.858;2023-04-24T12:05:00;96365.13;;;15.68;61.45
71889;BME280;59762;49.998;14.858;2023-04-24T12:07:29;96370.69;;;15.73;62.44
71889;BME280;59762;49.998;14.858;2023-04-24T12:09:58;96364.81;;;15.83;61.25
71889;BME280;59762;49.998;14.858;2023-04-24T12:12:27;96363.59;;;16.16;59.42
71889;BME280;59762;49.998;14.858;2023-04-24T12:14:57;96371.66;;;15.28;61.44
71889;BME280;59762;49.998;14.858;2023-04-24T12:19:58;96359.41;;;15.89;60.93
71889;BME280;59762;49.998;14.858;2023-04-24T12:22:27;96352.91;;;15.72;59.63
71889;BME280;59762;49.998;14.858;2023-04-24T12:25:04;96353.31;;;16.31;56.88
71889;BME280;59762;49.998;14.858;2023-04-24T12:27:33;96354.63;;;15.91;57.35
71889;BME280;59762;49.998;14.858;2023-04-24T12:30:03;96348.53;;;15.71;58.20
71889;BME280;59762;49.998;14.858;2023-04-24T12:32:31;96352.34;;;15.57;58.67
71889;BME280;59762;49.998;14.858;2023-04-24T12:34:58;96345.94;;;15.52;59.04
71889;BME280;59762;49.998;14.858;2023-04-24T12:37:25;96345.56;;;15.86;57.32
71889;BME280;59762;49.998;14.858;2023-04-24T12:40:18;96347.16;;;15.93;57.46
71889;BME280;59762;49.998;14.858;2023-04-24T12:42:49;96344.25;;;15.95;56.31
71889;BME280;59762;49.998;14.858;2023-04-24T12:45:19;96340.38;;;15.47;58.63
71889;BME280;59762;49.998;14.858;2023-04-24T12:47:46;96342.31;;;15.27;59.78
71889;BME280;59762;49.998;14.858;2023-04-24T12:50:15;96351.13;;;14.89;60.11
71889;BME280;59762;49.998;14.858;2023-04-24T12:52:44;96351.81;;;14.39;61.41